createdAt,value
2023-05-03T00:01:55.755Z,2.25
2023-05-03T00:05:01.100Z,4.93
2023-05-03T00:08:05.913Z,2.00
2023-05-03T00:11:11.026Z,2.55
2023-05-03T00:14:16.083Z,1.05
2023-05-03T00:17:20.937Z,2.03
2023-05-03T00:20:25.838Z,3.33
2023-05-03T00:23:30.783Z,2.22
2023-05-03T00:26:35.673Z,2.17
2023-05-03T00:29:40.267Z,2.08
2023-05-03T00:32:44.797Z,2.67
2023-05-03T00:35:49.360Z,1.73
2023-05-03T00:38:54.816Z,1.48
2023-05-03T00:42:00.596Z,1.92
2023-05-03T00:45:06.746Z,2.47
2023-05-03T00:48:12.766Z,1.83
2023-05-03T00:51:19.079Z,2.08
2023-05-03T00:54:23.697Z,2.95
2023-05-03T00:57:29.687Z,1.35
2023-05-03T01:00:34.689Z,2.72
2023-05-03T01:03:41.944Z,1.88
2023-05-03T01:07:12.460Z,3.15
2023-05-03T01:10:48.047Z,2.45
2023-05-03T01:14:00.909Z,1.83
2023-05-03T01:17:14.255Z,1.63
2023-05-03T01:20:26.769Z,2.33
2023-05-03T01:23:52.037Z,1.80
2023-05-03T01:26:56.452Z,2.08
2023-05-03T01:30:01.031Z,2.20
2023-05-03T01:33:21.048Z,2.45
2023-05-03T01:36:35.161Z,4.05
2023-05-03T01:39:50.338Z,2.47
2023-05-03T01:42:56.733Z,3.00
2023-05-03T01:46:01.343Z,1.75
2023-05-03T01:49:05.642Z,3.10
2023-05-03T01:52:10.559Z,2.83
2023-05-03T01:55:16.042Z,3.42
2023-05-03T01:58:20.482Z,1.58
2023-05-03T02:01:24.852Z,2.13
2023-05-03T02:04:30.204Z,2.53
2023-05-03T02:07:34.767Z,3.22
2023-05-03T02:10:39.190Z,1.55
2023-05-03T02:13:43.604Z,3.85
2023-05-03T02:16:48.641Z,2.55
2023-05-03T02:19:53.651Z,2.63
2023-05-03T02:22:58.096Z,4.30
2023-05-03T02:26:03.803Z,1.73
2023-05-03T02:29:08.502Z,4.18
2023-05-03T02:32:13.162Z,2.10
2023-05-03T02:35:17.983Z,5.95
2023-05-03T02:38:23.236Z,1.63
2023-05-03T02:41:28.715Z,2.42
2023-05-03T02:44:33.812Z,3.35
2023-05-03T02:47:38.725Z,3.05
2023-05-03T02:50:44.019Z,4.07
2023-05-03T02:53:48.612Z,1.77
2023-05-03T02:56:52.792Z,2.90
2023-05-03T02:59:57.656Z,2.08
2023-05-03T03:03:02.417Z,3.22
2023-05-03T03:06:07.474Z,2.50
2023-05-03T03:09:13.186Z,2.92
2023-05-03T03:12:18.571Z,3.10
2023-05-03T03:15:22.984Z,3.88
2023-05-03T03:18:28.636Z,3.05
2023-05-03T03:21:33.247Z,2.70
2023-05-03T03:24:38.349Z,2.50
2023-05-03T03:27:42.949Z,2.60
2023-05-03T03:30:47.320Z,1.90
2023-05-03T03:33:58.404Z,3.20
2023-05-03T03:37:05.726Z,2.33
2023-05-03T03:40:11.725Z,4.43
2023-05-03T03:43:17.228Z,1.95
2023-05-03T03:46:22.143Z,3.50
2023-05-03T03:49:30.812Z,2.78
2023-05-03T03:52:35.825Z,1.85
2023-05-03T03:55:40.581Z,3.58
2023-05-03T03:58:45.681Z,3.47
2023-05-03T04:01:51.504Z,2.00
2023-05-03T04:04:56.734Z,2.05
2023-05-03T04:08:01.623Z,3.35
2023-05-03T04:11:12.531Z,3.60
2023-05-03T04:14:22.860Z,3.65
2023-05-03T04:17:29.263Z,4.40
2023-05-03T04:20:34.940Z,4.18
2023-05-03T04:23:41.206Z,1.52
2023-05-03T04:26:47.965Z,2.58
2023-05-03T04:29:59.934Z,2.10
2023-05-03T04:33:05.380Z,3.15
2023-05-03T04:36:16.064Z,2.55
2023-05-03T04:39:24.641Z,3.42
2023-05-03T04:42:31.326Z,9.38
2023-05-03T04:45:36.232Z,2.60
2023-05-03T04:48:41.293Z,2.45
2023-05-03T04:51:46.178Z,2.22
2023-05-03T04:54:51.080Z,3.78
2023-05-03T04:57:56.693Z,3.25
2023-05-03T05:01:01.258Z,2.38
2023-05-03T05:04:08.553Z,3.75
2023-05-03T05:07:21.374Z,2.08
2023-05-03T05:10:26.928Z,4.22
2023-05-03T05:13:33.036Z,3.45
2023-05-03T05:16:37.686Z,2.65
2023-05-03T05:19:42.546Z,2.38
2023-05-03T05:22:47.552Z,3.65
2023-05-03T05:25:53.974Z,3.05
2023-05-03T05:28:58.647Z,2.80
2023-05-03T05:32:05.411Z,5.43
2023-05-03T05:35:11.086Z,2.20
2023-05-03T05:38:18.868Z,2.60
2023-05-03T05:41:23.877Z,2.83
2023-05-03T05:44:30.332Z,4.43
2023-05-03T05:47:35.256Z,4.57
2023-05-03T05:50:41.288Z,3.50
2023-05-03T05:53:48.850Z,3.60
2023-05-03T05:56:55.348Z,2.13
2023-05-03T06:00:00.850Z,2.80
2023-05-03T06:03:05.826Z,2.10
2023-05-03T06:06:10.917Z,1.40
2023-05-03T06:09:24.316Z,2.42
2023-05-03T06:12:33.474Z,3.00
2023-05-03T06:15:38.394Z,2.65
2023-05-03T06:18:42.817Z,3.33
2023-05-03T06:21:47.428Z,2.92
2023-05-03T06:24:53.144Z,2.45
2023-05-03T06:27:57.985Z,2.63
2023-05-03T06:31:07.273Z,1.98
2023-05-03T06:34:11.669Z,3.10
2023-05-03T06:37:18.839Z,2.60
2023-05-03T06:40:25.921Z,4.00
2023-05-03T06:43:30.509Z,2.65
2023-05-03T06:46:40.630Z,2.63
2023-05-03T06:49:46.102Z,2.70
2023-05-03T06:52:51.052Z,2.05
2023-05-03T06:55:55.904Z,3.70
2023-05-03T06:59:01.325Z,3.33
2023-05-03T07:02:05.876Z,5.32
2023-05-03T07:05:10.905Z,4.28
2023-05-03T07:08:15.640Z,3.20
2023-05-03T07:11:24.428Z,3.08
2023-05-03T07:14:28.968Z,3.63
2023-05-03T07:17:33.443Z,2.88
2023-05-03T07:20:37.918Z,3.17
2023-05-03T07:23:44.537Z,1.58
2023-05-03T07:26:49.236Z,2.63
2023-05-03T07:29:54.751Z,3.38
2023-05-03T07:32:59.985Z,2.55
2023-05-03T07:36:05.722Z,2.55
2023-05-03T07:39:09.985Z,4.72
2023-05-03T07:42:14.686Z,3.58
2023-05-03T07:45:20.930Z,3.15
2023-05-03T07:48:27.180Z,3.65
2023-05-03T07:51:39.047Z,3.53
2023-05-03T07:54:45.825Z,3.05
2023-05-03T07:57:51.098Z,4.22
2023-05-03T08:00:56.472Z,2.13
2023-05-03T08:04:01.309Z,2.88
2023-05-03T08:07:06.118Z,2.08
2023-05-03T08:10:11.511Z,2.00
2023-05-03T08:13:17.261Z,7.35
2023-05-03T08:16:22.016Z,4.20
2023-05-03T08:19:26.915Z,3.38
2023-05-03T08:22:31.898Z,2.88
2023-05-03T08:25:37.294Z,3.35
2023-05-03T08:28:42.603Z,4.63
2023-05-03T08:31:47.397Z,1.73
2023-05-03T08:34:53.316Z,2.20
2023-05-03T08:37:58.270Z,2.95
2023-05-03T08:41:19.558Z,2.33
2023-05-03T08:44:29.359Z,2.65
2023-05-03T08:47:37.521Z,3.67
2023-05-03T08:50:42.713Z,1.65
2023-05-03T08:53:47.221Z,4.88
2023-05-03T08:56:52.225Z,2.17
2023-05-03T09:00:00.728Z,1.88
2023-05-03T09:03:05.463Z,2.80
2023-05-03T09:06:27.155Z,4.35
2023-05-03T09:09:32.462Z,2.40
2023-05-03T09:12:41.030Z,2.55
2023-05-03T09:15:57.905Z,2.17
2023-05-03T09:19:06.400Z,2.83
2023-05-03T09:22:11.468Z,2.05
2023-05-03T09:25:16.564Z,3.35
2023-05-03T09:28:21.848Z,2.92
2023-05-03T09:31:28.168Z,3.17
2023-05-03T09:34:34.197Z,2.47
2023-05-03T09:37:38.957Z,3.55
2023-05-03T09:40:48.215Z,3.03
2023-05-03T09:43:55.485Z,3.75
2023-05-03T09:47:07.389Z,2.35
2023-05-03T09:50:12.075Z,3.58
2023-05-03T09:53:19.874Z,1.92
2023-05-03T09:56:26.826Z,5.05
2023-05-03T09:59:33.691Z,2.75
2023-05-03T10:02:38.305Z,2.35
2023-05-03T10:05:47.590Z,3.95
2023-05-03T10:09:06.287Z,1.50
2023-05-03T10:12:13.203Z,2.47
2023-05-03T10:15:21.096Z,2.40
2023-05-03T10:18:29.771Z,3.53
2023-05-03T10:22:11.736Z,1.70
2023-05-03T10:25:16.343Z,3.13
2023-05-03T10:28:20.874Z,1.67
2023-05-03T10:31:47.091Z,2.58
2023-05-03T10:35:12.623Z,3.80
2023-05-03T10:38:24.112Z,2.63
2023-05-03T10:41:28.664Z,2.28
2023-05-03T10:44:48.953Z,3.67
2023-05-03T10:48:11.877Z,2.95
2023-05-03T10:51:37.023Z,2.10
2023-05-03T10:54:42.078Z,3.28
2023-05-03T10:57:48.219Z,2.47
2023-05-03T11:00:52.809Z,3.67
2023-05-03T11:04:18.956Z,2.10
2023-05-03T11:07:23.467Z,4.30
2023-05-03T11:10:28.068Z,2.05
2023-05-03T11:13:33.125Z,3.00
2023-05-03T11:16:41.168Z,5.15
2023-05-03T11:19:46.913Z,5.15
2023-05-03T11:22:52.529Z,5.72
2023-05-03T11:25:58.108Z,3.30
2023-05-03T11:29:03.078Z,2.78
2023-05-03T11:32:09.223Z,1.90
2023-05-03T11:35:15.407Z,3.83
2023-05-03T11:38:19.928Z,5.05
2023-05-03T11:41:24.569Z,3.42
2023-05-03T11:44:29.406Z,2.40
2023-05-03T11:47:34.358Z,4.03
2023-05-03T11:50:56.878Z,3.75
2023-05-03T11:54:12.815Z,4.57
2023-05-03T11:57:25.649Z,4.68
2023-05-03T12:00:30.827Z,4.85
2023-05-03T12:03:36.595Z,4.35
2023-05-03T12:06:43.216Z,3.63
2023-05-03T12:10:03.333Z,4.55
2023-05-03T12:13:14.338Z,2.20
2023-05-03T12:16:21.086Z,4.07
2023-05-03T12:19:33.240Z,2.83
2023-05-03T12:22:39.578Z,3.85
2023-05-03T12:25:45.281Z,3.97
2023-05-03T12:28:50.202Z,4.80
2023-05-03T12:31:55.072Z,4.53
2023-05-03T12:35:02.018Z,3.33
2023-05-03T12:38:09.483Z,4.70
2023-05-03T12:41:22.597Z,3.28
2023-05-03T12:44:42.639Z,4.40
2023-05-03T12:47:50.282Z,3.95
2023-05-03T12:51:13.636Z,5.40
2023-05-03T12:54:19.859Z,6.25
2023-05-03T12:57:24.751Z,2.90
2023-05-03T13:00:35.550Z,3.55
2023-05-03T13:03:44.481Z,4.53
2023-05-03T13:06:59.078Z,5.00
2023-05-03T13:13:13.070Z,3.65
2023-05-03T13:16:19.654Z,4.57
2023-05-03T13:19:24.554Z,2.58
2023-05-03T13:22:32.052Z,4.07
2023-05-03T13:25:40.318Z,3.10
2023-05-03T13:28:45.174Z,5.18
2023-05-03T13:31:49.868Z,3.78
2023-05-03T13:34:54.505Z,4.50
2023-05-03T13:37:58.840Z,4.07
2023-05-03T13:41:10.515Z,5.15
2023-05-03T13:44:15.184Z,5.75
2023-05-03T13:47:19.946Z,4.38
2023-05-03T13:50:24.236Z,5.65
2023-05-03T13:53:28.820Z,4.25
2023-05-03T13:56:34.776Z,4.32
2023-05-03T13:59:39.543Z,5.75
2023-05-03T14:02:44.394Z,3.40
2023-05-03T14:05:49.195Z,6.38
2023-05-03T14:08:54.839Z,3.60
2023-05-03T14:11:59.884Z,4.93
2023-05-03T14:15:08.604Z,3.30
2023-05-03T14:18:13.876Z,5.70
2023-05-03T14:21:19.021Z,4.53
2023-05-03T14:24:24.233Z,4.32
2023-05-03T14:27:30.716Z,5.65
2023-05-03T14:30:36.353Z,4.55
2023-05-03T14:33:41.127Z,4.60
2023-05-03T14:36:45.429Z,6.22
2023-05-03T14:39:50.101Z,4.18
2023-05-03T14:42:55.039Z,3.15
2023-05-03T14:45:59.713Z,5.03
2023-05-03T14:49:04.267Z,3.55
2023-05-03T14:52:09.320Z,7.43
2023-05-03T14:55:13.991Z,4.55
2023-05-03T14:58:18.724Z,4.85
2023-05-03T15:01:23.660Z,3.63
2023-05-03T15:04:29.687Z,5.22
2023-05-03T15:07:34.542Z,3.85
2023-05-03T15:10:39.836Z,5.20
2023-05-03T15:13:44.824Z,4.95
2023-05-03T15:16:49.660Z,5.57
2023-05-03T15:19:54.127Z,4.38
2023-05-03T15:22:58.657Z,4.47
2023-05-03T15:26:03.192Z,6.55
2023-05-03T15:29:07.924Z,4.22
2023-05-03T15:32:13.003Z,4.65
2023-05-03T15:35:18.218Z,4.65
2023-05-03T15:38:22.974Z,4.68
2023-05-03T15:41:27.469Z,3.40
2023-05-03T15:44:32.028Z,5.85
2023-05-03T15:47:36.860Z,3.17
2023-05-03T15:50:41.691Z,4.78
2023-05-03T15:53:46.563Z,4.88
2023-05-03T15:56:53.271Z,6.53
2023-05-03T15:59:57.950Z,3.70
2023-05-03T16:03:02.633Z,5.50
2023-05-03T16:06:07.798Z,3.70
2023-05-03T16:09:12.942Z,5.47
2023-05-03T16:12:17.859Z,3.95
2023-05-03T16:15:23.015Z,4.05
2023-05-03T16:18:27.712Z,5.45
2023-05-03T16:21:32.953Z,4.03
2023-05-03T16:24:37.562Z,5.50
2023-05-03T16:27:42.212Z,3.88
2023-05-03T16:30:46.948Z,4.65
2023-05-03T16:33:52.145Z,4.78
2023-05-03T16:36:56.520Z,4.53
2023-05-03T16:40:01.891Z,4.63
2023-05-03T16:43:06.755Z,5.72
2023-05-03T16:46:11.694Z,5.55
2023-05-03T16:49:18.325Z,4.25
2023-05-03T16:52:23.174Z,4.38
2023-05-03T16:55:28.036Z,4.45
2023-05-03T16:58:32.863Z,7.97
2023-05-03T17:01:37.578Z,3.72
2023-05-03T17:04:42.741Z,4.60
2023-05-03T17:07:47.282Z,3.25
2023-05-03T17:10:54.503Z,2.85
2023-05-03T17:14:00.918Z,3.22
2023-05-03T17:17:05.863Z,2.17
2023-05-03T17:20:12.869Z,2.53
2023-05-03T17:23:19.255Z,4.43
2023-05-03T17:26:24.817Z,3.78
2023-05-03T17:29:29.327Z,4.20
2023-05-03T17:32:34.179Z,4.05
2023-05-03T17:35:38.949Z,4.40
2023-05-03T17:38:43.496Z,6.28
2023-05-03T17:41:48.284Z,3.30
2023-05-03T17:44:54.874Z,2.70
2023-05-03T17:47:59.384Z,3.00
2023-05-03T17:51:04.829Z,3.25
2023-05-03T17:54:09.446Z,4.25
2023-05-03T17:57:14.495Z,4.20
2023-05-03T18:00:21.398Z,3.45
2023-05-03T18:03:26.066Z,3.70
2023-05-03T18:06:30.664Z,4.45
2023-05-03T18:09:35.470Z,3.10
2023-05-03T18:12:41.035Z,3.20
2023-05-03T18:15:45.485Z,3.25
2023-05-03T18:18:50.482Z,2.50
2023-05-03T18:21:55.258Z,1.80
2023-05-03T18:25:02.148Z,3.20
2023-05-03T18:28:06.792Z,4.93
2023-05-03T18:31:11.753Z,2.13
2023-05-03T18:34:16.554Z,2.97
2023-05-03T18:37:24.622Z,4.32
2023-05-03T18:40:30.603Z,4.15
2023-05-03T18:43:38.226Z,4.10
2023-05-03T18:46:44.345Z,4.18
2023-05-03T18:49:53.170Z,3.60
2023-05-03T18:52:57.954Z,4.00
2023-05-03T18:56:04.705Z,5.28
2023-05-03T18:59:09.469Z,3.85
2023-05-03T19:02:14.550Z,4.80
2023-05-03T19:05:19.207Z,4.78
2023-05-03T19:08:24.089Z,4.38
2023-05-03T19:11:29.011Z,5.20
2023-05-03T19:14:39.197Z,4.93
2023-05-03T19:17:44.484Z,5.03
2023-05-03T19:20:50.818Z,4.97
2023-05-03T19:23:55.344Z,5.13
2023-05-03T19:26:59.588Z,4.97
2023-05-03T19:30:04.038Z,5.18
2023-05-03T19:33:08.627Z,5.68
2023-05-03T19:36:14.676Z,5.47
2023-05-03T19:39:19.461Z,4.50
2023-05-03T19:42:24.057Z,5.85
2023-05-03T19:45:28.658Z,4.47
2023-05-03T19:48:33.494Z,5.05
2023-05-03T19:51:38.726Z,7.82
2023-05-03T19:54:43.420Z,4.10
2023-05-03T19:57:48.141Z,4.13
2023-05-03T20:00:53.000Z,4.32
2023-05-03T20:03:57.570Z,4.90
2023-05-03T20:07:02.374Z,4.22
2023-05-03T20:10:07.660Z,5.13
2023-05-03T20:13:12.686Z,4.28
2023-05-03T20:16:20.035Z,4.30
2023-05-03T20:19:26.742Z,5.00
2023-05-03T20:22:31.446Z,3.45
2023-05-03T20:25:36.111Z,6.90
2023-05-03T20:28:41.145Z,5.03
2023-05-03T20:31:48.191Z,5.07
2023-05-03T20:34:53.266Z,3.85
2023-05-03T20:37:57.944Z,4.95
2023-05-03T20:41:02.637Z,5.93
2023-05-03T20:44:07.193Z,5.15
2023-05-03T20:47:11.426Z,4.95
2023-05-03T20:50:15.889Z,5.70
2023-05-03T20:53:20.699Z,6.18
2023-05-03T20:56:25.407Z,7.72
2023-05-03T20:59:30.285Z,5.70
2023-05-03T21:02:34.518Z,5.10
2023-05-03T21:05:39.324Z,6.75
2023-05-03T21:08:43.723Z,7.32
2023-05-03T21:11:47.975Z,6.45
2023-05-03T21:14:52.596Z,5.55
2023-05-03T21:17:57.893Z,7.53
2023-05-03T21:21:02.195Z,6.43
2023-05-03T21:24:08.090Z,5.63
2023-05-03T21:27:12.633Z,5.60
2023-05-03T21:30:19.273Z,4.95
2023-05-03T21:33:24.422Z,5.90
2023-05-03T21:36:30.493Z,5.80
2023-05-03T21:39:35.018Z,7.63
2023-05-03T21:42:39.651Z,6.57
2023-05-03T21:45:44.598Z,6.00
2023-05-03T21:48:49.059Z,5.90
2023-05-03T21:51:53.853Z,8.30
2023-05-03T21:54:59.310Z,6.68
2023-05-03T21:58:03.876Z,7.22
2023-05-03T22:01:08.428Z,5.90
2023-05-03T22:04:12.602Z,7.28
2023-05-03T22:07:17.058Z,8.55
2023-05-03T22:10:21.771Z,10.75
2023-05-03T22:13:26.674Z,7.20
2023-05-03T22:16:31.267Z,7.80
2023-05-03T22:19:38.093Z,7.78
2023-05-03T22:22:42.877Z,10.35
2023-05-03T22:25:47.114Z,6.90
2023-05-03T22:28:52.064Z,10.07
2023-05-03T22:31:57.224Z,9.55
2023-05-03T22:35:01.811Z,8.40
2023-05-03T22:38:06.449Z,8.18
2023-05-03T22:41:11.213Z,9.85
2023-05-03T22:44:15.437Z,10.25
2023-05-03T22:47:21.468Z,11.05
2023-05-03T22:50:26.246Z,11.65
2023-05-03T22:53:30.886Z,9.38
2023-05-03T22:56:35.464Z,10.05
2023-05-03T22:59:44.196Z,8.20
2023-05-03T23:02:48.622Z,10.07
2023-05-03T23:05:54.730Z,9.57
2023-05-03T23:09:01.042Z,8.30
2023-05-03T23:12:05.704Z,11.18
2023-05-03T23:15:11.366Z,10.32
2023-05-03T23:18:15.811Z,10.75
2023-05-03T23:21:20.472Z,13.18
2023-05-03T23:24:24.781Z,10.07
2023-05-03T23:27:29.338Z,10.13
2023-05-03T23:30:34.274Z,8.98
2023-05-03T23:33:39.486Z,9.75
2023-05-03T23:36:44.002Z,10.25
2023-05-03T23:39:48.810Z,9.57
2023-05-03T23:42:53.460Z,8.43
2023-05-03T23:45:57.882Z,12.07
2023-05-03T23:49:02.317Z,8.80
2023-05-03T23:52:08.386Z,8.93
2023-05-03T23:55:13.194Z,10.30
2023-05-03T23:58:17.817Z,7.97
